Hauptseite
METAR-TAF:

METAR-TAF

Flughäfen :

Madrid, Spanien

Flughafen Madrid-Barajas

Breite: 40-27N, Länge: 003-33W, Höhe: 609 m

Beobachtung

Neuester Wetterbericht von vor 18 Minuten, um 21:30 UTC
Wind 1 kt aus unterschiedlichen Richtungen
Temperatur 4°C
Luftfeuchtigkeit 44%
Luftdruck 1011 hPa
Sichtweite 10 km oder mehr
keine Wolken unter 1500 m und keine Kumulonimbus oder Gewitterwolken

METAR: LEMD 252130Z VRB01KT CAVOK 04/M07 Q1011 NOSIG

Zeit: 22:48 (21:48 UTC)

Prognose

Neuester Wetterbericht von vor 4 Stunden und 48 Minuten, um 17:00 UTC
Gültige Prognose vom 25 um 18 UTC bis 26 um 24 UTC
Wind 5 kt aus unterschiedlichen Richtungen
Sichtweite 10 km oder mehr
keine Wolken unter 1500 m und keine Kumulonimbus oder Gewitterwolken
Zeitweise
vom 26 um 22 UTC bis 26 um 24 UTC
Wind 10 kt aus Nordost

TAF: LEMD 251700Z 2518/2624 VRB05KT CAVOK TX15/2615Z TNM03/2607Z TEMPO 2622/2624 04010KT

Wetterbeobachtungen und Prognosen von mehr als 4000 Flughäfen (METAR und TAF Bericht).

Die verfügbaren Stationen werden durch gelbe und rote Markierungen auf der Karte dargestellt.

Führen Sie die Maus auf sie, um den Namen der Station zu sehen.

Darauf klicken, um die Beobachtung von Wetterbeobachtungen und Prognosen zu sehen.

Um die Karte zu ändern : klicken Sie auf den grünen Tasten mit einem schwarzen Kreuz Zum Vergrößern, auf den grünen Button mit einem Gedankenstrich zu verkleinern, oder auf die grünen Pfeile für benachbarte Karten.


METAR-TAF: